createdAt,value
2019-01-10T00:06:01.482Z,1020.95
2019-01-10T00:16:01.497Z,1021.07
2019-01-10T00:26:01.523Z,1021.22
2019-01-10T00:41:01.451Z,1021.27
2019-01-10T00:56:02.786Z,1021.35
2019-01-10T01:11:01.675Z,1021.36
2019-01-10T01:26:02.584Z,1021.43
2019-01-10T01:41:01.458Z,1021.42
2019-01-10T01:51:01.583Z,1021.61
2019-01-10T02:01:01.783Z,1021.62
2019-01-10T02:16:01.753Z,1021.82
2019-01-10T02:31:01.530Z,1021.98
2019-01-10T02:36:01.459Z,1021.97
2019-01-10T02:51:01.579Z,1022.17
2019-01-10T03:06:01.462Z,1022.2
2019-01-10T03:16:01.790Z,1022.16
2019-01-10T03:26:02.412Z,1022.1
2019-01-10T03:31:01.551Z,1022.1
2019-01-10T03:36:01.380Z,1022.08
2019-01-10T03:46:01.444Z,1021.98
2019-01-10T03:51:01.466Z,1021.98
2019-01-10T04:01:01.463Z,1021.98
2019-01-10T04:06:01.418Z,1021.92
2019-01-10T04:16:01.443Z,1022.05
2019-01-10T04:31:01.455Z,1022.14
2019-01-10T04:41:01.514Z,1022.15
2019-01-10T04:56:02.786Z,1022.09
2019-01-10T05:11:01.577Z,1022.08
2019-01-10T05:21:01.486Z,1022.09
2019-01-10T05:31:01.512Z,1021.94
2019-01-10T05:46:02.636Z,1022.03
2019-01-10T06:01:01.507Z,1022.02
2019-01-10T06:06:01.654Z,1021.97
2019-01-10T06:21:01.555Z,1022.07
2019-01-10T06:26:01.393Z,1022.19
2019-01-10T06:31:01.458Z,1022.19
2019-01-10T06:36:01.405Z,1022.28
2019-01-10T06:46:01.540Z,1022.42
2019-01-10T06:51:01.367Z,1022.42
2019-01-10T07:01:01.524Z,1022.42
2019-01-10T07:16:01.537Z,1022.61
2019-01-10T07:31:01.363Z,1022.74
2019-01-10T07:36:01.805Z,1022.74
2019-01-10T07:46:01.535Z,1022.84
2019-01-10T07:51:01.524Z,1022.84
2019-01-10T08:06:01.563Z,1022.77
2019-01-10T08:11:01.533Z,1022.77
2019-01-10T08:16:01.540Z,1022.85
2019-01-10T08:21:01.534Z,1022.85
2019-01-10T08:26:01.605Z,1022.97
2019-01-10T08:36:01.673Z,1022.88
2019-01-10T08:41:01.534Z,1022.88
2019-01-10T08:46:01.675Z,1022.93
2019-01-10T08:56:01.550Z,1022.98
2019-01-10T09:12:01.529Z,1022.94
2019-01-10T09:22:01.563Z,1022.96
2019-01-10T09:32:01.626Z,1023.01
2019-01-10T09:47:01.601Z,1022.91
2019-01-10T10:03:01.585Z,1023.03
2019-01-10T10:13:01.659Z,1022.93
2019-01-10T10:23:01.504Z,1022.92
2019-01-10T10:38:01.545Z,1022.92
2019-01-10T10:48:01.614Z,1022.89
2019-01-10T10:53:01.607Z,1022.77
2019-01-10T11:03:01.537Z,1022.77
2019-01-10T11:18:01.565Z,1022.82
2019-01-10T11:33:01.660Z,1022.69
2019-01-10T11:48:01.571Z,1022.65
2019-01-10T12:03:01.561Z,1022.5
2019-01-10T12:13:01.567Z,1022.34
2019-01-10T12:18:01.632Z,1022.34
2019-01-10T12:33:01.646Z,1022.26
2019-01-10T12:38:01.830Z,1022.26
2019-01-10T12:48:02.042Z,1022.14
2019-01-10T13:03:01.537Z,1021.91
2019-01-10T13:18:01.629Z,1021.82
2019-01-10T13:23:01.631Z,1021.72
2019-01-10T13:33:01.601Z,1021.69
2019-01-10T13:48:01.633Z,1021.87
2019-01-10T13:53:01.565Z,1021.91
2019-01-10T14:03:01.550Z,1021.92
2019-01-10T14:18:01.590Z,1021.89
2019-01-10T14:33:01.561Z,1021.62
2019-01-10T14:38:01.523Z,1021.62
2019-01-10T14:53:01.540Z,1021.69
2019-01-10T15:08:01.578Z,1021.69
2019-01-10T15:23:01.548Z,1021.59
2019-01-10T15:38:03.806Z,1021.46
2019-01-10T15:53:01.537Z,1021.32
2019-01-10T16:03:01.534Z,1021.28
2019-01-10T16:18:01.538Z,1021.13
2019-01-10T16:33:01.312Z,1020.8
2019-01-10T16:48:01.490Z,1020.89
2019-01-10T16:53:01.458Z,1020.75
2019-01-10T17:08:01.540Z,1020.7
2019-01-10T17:23:02.765Z,1020.53
2019-01-10T17:34:01.444Z,1020.43
2019-01-10T17:49:01.456Z,1020.32
2019-01-10T17:54:01.514Z,1020.29
2019-01-10T18:09:01.553Z,1020.31
2019-01-10T18:19:01.529Z,1020.34
2019-01-10T18:34:01.777Z,1020.12
2019-01-10T18:49:01.645Z,1020.13
2019-01-10T19:04:01.586Z,1020.1
2019-01-10T19:14:01.551Z,1020.03
2019-01-10T19:29:01.524Z,1019.96
2019-01-10T19:44:01.476Z,1019.79
2019-01-10T19:59:01.510Z,1019.66
2019-01-10T20:14:01.509Z,1019.52
2019-01-10T20:29:01.581Z,1019.44
2019-01-10T20:34:01.457Z,1019.47
2019-01-10T20:49:01.450Z,1019.33
2019-01-10T21:04:01.469Z,1019.16
2019-01-10T21:09:01.464Z,1019.16
2019-01-10T21:24:01.522Z,1018.97
2019-01-10T21:29:01.536Z,1018.97
2019-01-10T21:34:01.505Z,1018.83
2019-01-10T21:49:01.520Z,1018.8
2019-01-10T22:04:01.547Z,1018.35
2019-01-10T22:14:01.519Z,1018.19
2019-01-10T22:29:01.561Z,1018.2
2019-01-10T22:44:01.458Z,1017.94
2019-01-10T22:59:01.601Z,1017.95
2019-01-10T23:09:01.458Z,1017.81
2019-01-10T23:19:02.098Z,1017.54
2019-01-10T23:24:01.440Z,1017.36
2019-01-10T23:34:01.459Z,1017.21
2019-01-10T23:44:01.497Z,1016.99
2019-01-10T23:54:01.461Z,1016.85
